createdAt,value
2022-08-26T00:01:30.201Z,10.70
2022-08-26T00:04:16.488Z,10.52
2022-08-26T00:07:01.817Z,11.32
2022-08-26T00:09:47.389Z,10.82
2022-08-26T00:12:36.145Z,11.20
2022-08-26T00:15:23.340Z,11.23
2022-08-26T00:18:16.752Z,11.02
2022-08-26T00:21:08.771Z,11.35
2022-08-26T00:23:54.181Z,11.35
2022-08-26T00:26:39.646Z,11.63
2022-08-26T00:29:26.636Z,11.60
2022-08-26T00:32:11.546Z,11.57
2022-08-26T00:34:56.410Z,11.98
2022-08-26T00:37:42.587Z,12.00
2022-08-26T00:40:42.923Z,11.43
2022-08-26T00:43:32.233Z,11.52
2022-08-26T00:46:34.982Z,11.85
2022-08-26T00:49:41.321Z,12.32
2022-08-26T00:52:27.445Z,11.13
2022-08-26T00:55:26.620Z,11.88
2022-08-26T00:58:26.633Z,11.73
2022-08-26T01:01:12.307Z,11.63
2022-08-26T01:03:59.076Z,11.77
2022-08-26T01:06:46.442Z,11.90
2022-08-26T01:09:32.107Z,11.77
2022-08-26T01:12:21.950Z,11.30
2022-08-26T01:15:10.060Z,11.93
2022-08-26T01:17:55.115Z,11.60
2022-08-26T01:21:13.793Z,11.93
2022-08-26T01:23:59.578Z,11.73
2022-08-26T01:26:45.017Z,11.85
2022-08-26T01:29:33.698Z,11.80
2022-08-26T01:32:22.020Z,11.25
2022-08-26T01:35:08.695Z,11.80
2022-08-26T01:37:55.827Z,12.40
2022-08-26T01:40:42.150Z,11.95
2022-08-26T01:43:31.319Z,12.45
2022-08-26T01:46:18.537Z,11.55
2022-08-26T01:49:06.688Z,12.35
2022-08-26T01:51:54.912Z,11.98
2022-08-26T01:54:40.384Z,12.63
2022-08-26T01:57:26.131Z,12.02
2022-08-26T02:00:12.788Z,12.43
2022-08-26T02:03:02.691Z,12.80
2022-08-26T02:05:56.004Z,12.05
2022-08-26T02:08:45.181Z,12.30
2022-08-26T02:11:30.093Z,11.55
2022-08-26T02:14:27.882Z,12.18
2022-08-26T02:17:13.121Z,12.23
2022-08-26T02:19:58.587Z,12.23
2022-08-26T02:22:45.151Z,12.90
2022-08-26T02:25:52.419Z,12.25
2022-08-26T02:28:44.892Z,12.57
2022-08-26T02:31:30.085Z,12.82
2022-08-26T02:34:20.319Z,13.00
2022-08-26T02:37:09.585Z,12.93
2022-08-26T02:39:54.699Z,12.38
2022-08-26T02:42:39.808Z,12.80
2022-08-26T02:45:26.063Z,12.65
2022-08-26T02:48:18.829Z,12.82
2022-08-26T02:51:04.069Z,12.23
2022-08-26T02:53:49.817Z,12.32
2022-08-26T02:56:36.528Z,12.38
2022-08-26T02:59:24.357Z,12.93
2022-08-26T03:02:10.007Z,12.40
2022-08-26T03:04:57.991Z,12.73
2022-08-26T03:07:48.032Z,13.07
2022-08-26T03:10:32.979Z,13.05
2022-08-26T03:13:18.462Z,13.40
2022-08-26T03:16:04.527Z,13.50
2022-08-26T03:18:52.413Z,12.85
2022-08-26T03:21:39.422Z,13.35
2022-08-26T03:24:24.924Z,13.05
2022-08-26T03:27:10.204Z,13.50
2022-08-26T03:29:55.708Z,13.18
2022-08-26T03:32:41.478Z,13.98
2022-08-26T03:35:27.033Z,13.63
2022-08-26T03:38:12.373Z,13.05
2022-08-26T03:40:57.476Z,13.40
2022-08-26T03:43:42.892Z,13.65
2022-08-26T03:46:28.620Z,13.38
2022-08-26T03:49:13.853Z,12.52
2022-08-26T03:52:00.385Z,13.10
2022-08-26T03:54:45.595Z,15.32
2022-08-26T03:57:32.637Z,13.32
2022-08-26T04:00:18.479Z,13.93
2022-08-26T04:03:04.069Z,14.57
2022-08-26T04:05:51.867Z,13.98
2022-08-26T04:08:38.098Z,14.57
2022-08-26T04:11:26.809Z,13.77
2022-08-26T04:14:17.523Z,13.80
2022-08-26T04:17:05.781Z,14.52
2022-08-26T04:19:53.050Z,14.30
2022-08-26T04:22:38.393Z,13.52
2022-08-26T04:25:24.208Z,14.15
2022-08-26T04:28:09.940Z,13.07
2022-08-26T04:30:55.470Z,14.02
2022-08-26T04:33:41.683Z,14.20
2022-08-26T04:36:26.943Z,13.93
2022-08-26T04:39:13.830Z,14.50
2022-08-26T04:41:59.689Z,15.07
2022-08-26T04:44:47.075Z,14.30
2022-08-26T04:47:32.570Z,15.10
2022-08-26T04:50:18.377Z,15.18
2022-08-26T04:53:07.173Z,14.65
2022-08-26T04:55:55.261Z,14.60
2022-08-26T04:58:40.450Z,14.75
2022-08-26T05:01:27.373Z,15.63
2022-08-26T05:04:12.847Z,14.27
2022-08-26T05:07:02.805Z,14.77
2022-08-26T05:09:47.954Z,15.15
2022-08-26T05:12:33.785Z,14.45
2022-08-26T05:15:19.162Z,17.17
2022-08-26T05:18:06.814Z,15.77
2022-08-26T05:20:54.733Z,15.85
2022-08-26T05:23:39.997Z,16.00
2022-08-26T05:26:28.716Z,17.08
2022-08-26T05:29:13.967Z,15.73
2022-08-26T05:31:59.269Z,15.65
2022-08-26T05:34:44.229Z,15.75
2022-08-26T05:37:31.269Z,15.75
2022-08-26T05:40:16.801Z,17.27
2022-08-26T05:43:04.591Z,15.65
2022-08-26T05:45:50.394Z,15.05
2022-08-26T05:48:36.401Z,15.57
2022-08-26T05:51:25.419Z,16.00
2022-08-26T05:54:12.652Z,16.52
2022-08-26T05:56:57.738Z,17.90
2022-08-26T05:59:43.060Z,17.63
2022-08-26T06:02:28.451Z,18.13
2022-08-26T06:05:13.959Z,17.77
2022-08-26T06:07:59.309Z,18.65
2022-08-26T06:10:53.939Z,18.50
2022-08-26T06:13:39.984Z,18.83
2022-08-26T06:16:25.628Z,20.38
2022-08-26T06:19:13.497Z,21.50
2022-08-26T06:21:58.954Z,21.23
2022-08-26T06:24:44.355Z,20.40
2022-08-26T06:27:32.806Z,22.02
2022-08-26T06:30:18.128Z,21.58
2022-08-26T06:33:04.203Z,20.90
2022-08-26T06:35:50.919Z,21.02
2022-08-26T06:38:36.494Z,20.45
2022-08-26T06:41:22.957Z,19.98
2022-08-26T06:44:07.840Z,20.27
2022-08-26T06:46:52.956Z,20.08
2022-08-26T06:49:39.832Z,20.88
2022-08-26T06:52:24.874Z,21.08
2022-08-26T06:55:09.971Z,21.25
2022-08-26T06:57:56.268Z,21.38
2022-08-26T07:00:41.719Z,21.58
2022-08-26T07:03:32.768Z,20.83
2022-08-26T07:06:26.191Z,20.17
2022-08-26T07:09:11.596Z,21.83
2022-08-26T07:11:56.918Z,20.88
2022-08-26T07:14:47.264Z,22.35
2022-08-26T07:17:33.548Z,21.70
2022-08-26T07:20:19.400Z,20.83
2022-08-26T07:23:04.893Z,21.27
2022-08-26T07:25:55.520Z,21.83
2022-08-26T07:28:40.741Z,23.27
2022-08-26T07:31:35.983Z,21.75
2022-08-26T07:34:24.659Z,23.67
2022-08-26T07:37:11.977Z,22.35
2022-08-26T07:39:57.148Z,22.23
2022-08-26T07:42:42.445Z,22.40
2022-08-26T07:45:28.007Z,22.83
2022-08-26T07:48:13.430Z,22.98
2022-08-26T07:50:59.336Z,22.70
2022-08-26T07:53:48.033Z,21.75
2022-08-26T07:56:37.717Z,21.00
2022-08-26T07:59:23.267Z,21.38
2022-08-26T08:02:08.454Z,20.70
2022-08-26T08:04:56.969Z,21.13
2022-08-26T08:07:45.344Z,20.83
2022-08-26T08:10:31.779Z,21.23
2022-08-26T08:13:17.082Z,20.52
2022-08-26T08:16:04.417Z,23.25
2022-08-26T08:18:49.320Z,22.35
2022-08-26T08:21:35.162Z,22.75
2022-08-26T08:24:20.067Z,24.55
2022-08-26T08:27:05.629Z,25.02
2022-08-26T08:29:52.278Z,24.25
2022-08-26T08:32:37.984Z,23.15
2022-08-26T08:35:23.895Z,23.92
2022-08-26T08:38:09.171Z,23.67
2022-08-26T08:40:56.033Z,28.42
2022-08-26T08:43:44.754Z,28.38
2022-08-26T08:46:30.285Z,25.13
2022-08-26T08:49:16.922Z,25.40
2022-08-26T08:52:29.350Z,27.17
2022-08-26T08:55:18.207Z,27.58
2022-08-26T08:58:08.140Z,30.42
2022-08-26T09:01:08.424Z,30.40
2022-08-26T09:04:01.174Z,31.90
2022-08-26T09:06:48.624Z,30.17
2022-08-26T09:10:20.507Z,29.70
2022-08-26T09:13:09.688Z,31.25
2022-08-26T09:15:58.815Z,31.80
2022-08-26T09:18:53.499Z,29.65
2022-08-26T09:21:38.843Z,27.48
2022-08-26T09:24:28.554Z,27.65
2022-08-26T09:27:44.979Z,30.63
2022-08-26T09:30:33.195Z,30.25
2022-08-26T09:33:18.503Z,26.67
2022-08-26T09:36:39.220Z,27.08
2022-08-26T09:39:28.929Z,29.88
2022-08-26T09:42:23.108Z,28.27
2022-08-26T09:45:08.154Z,29.58
2022-08-26T09:47:56.862Z,30.67
2022-08-26T09:50:57.737Z,31.85
2022-08-26T09:53:52.315Z,31.35
2022-08-26T09:56:39.185Z,34.40
2022-08-26T09:59:30.974Z,34.95
2022-08-26T10:02:31.267Z,35.10
2022-08-26T10:05:28.137Z,35.22
2022-08-26T10:08:20.864Z,33.88
2022-08-26T10:11:26.113Z,32.38
2022-08-26T10:14:29.745Z,32.95
2022-08-26T10:17:35.231Z,30.33
2022-08-26T10:20:28.144Z,32.28
2022-08-26T10:23:18.415Z,33.05
2022-08-26T10:26:15.945Z,29.92
2022-08-26T10:29:43.013Z,32.42
2022-08-26T10:32:56.441Z,32.15
2022-08-26T10:35:52.091Z,30.70
2022-08-26T10:38:39.385Z,32.30
2022-08-26T10:41:31.362Z,30.08
2022-08-26T10:44:17.922Z,31.98
2022-08-26T10:47:12.605Z,30.90
2022-08-26T10:50:02.983Z,31.05
2022-08-26T10:53:11.334Z,33.28
2022-08-26T10:56:05.659Z,37.00
2022-08-26T10:59:04.524Z,34.10
2022-08-26T11:01:58.430Z,33.90
2022-08-26T11:04:57.350Z,34.13
2022-08-26T11:07:48.071Z,31.25
2022-08-26T11:10:55.406Z,32.42
2022-08-26T11:13:56.307Z,31.58
2022-08-26T11:16:43.979Z,33.25
2022-08-26T11:19:59.560Z,34.45
2022-08-26T11:22:47.542Z,33.92
2022-08-26T11:25:33.256Z,33.45
2022-08-26T11:28:34.847Z,31.30
2022-08-26T11:31:20.203Z,32.60
2022-08-26T11:34:13.487Z,34.10
2022-08-26T11:37:00.367Z,33.03
2022-08-26T11:39:55.557Z,30.33
2022-08-26T11:42:46.576Z,32.47
2022-08-26T11:45:41.339Z,31.02
2022-08-26T11:48:32.368Z,31.20
2022-08-26T11:51:18.610Z,34.03
2022-08-26T11:54:16.389Z,30.45
2022-08-26T11:57:09.248Z,29.92
2022-08-26T11:59:57.486Z,33.30
2022-08-26T12:02:42.871Z,30.15
2022-08-26T12:05:36.795Z,27.55
2022-08-26T12:08:27.977Z,26.10
2022-08-26T12:11:24.982Z,26.45
2022-08-26T12:14:21.603Z,25.23
2022-08-26T12:17:12.772Z,26.75
2022-08-26T12:19:58.074Z,24.67
2022-08-26T12:22:48.192Z,24.63
2022-08-26T12:25:36.209Z,28.20
2022-08-26T12:28:23.194Z,29.20
2022-08-26T12:31:08.643Z,28.20
2022-08-26T12:33:56.677Z,28.63
2022-08-26T12:36:51.975Z,28.23
2022-08-26T12:39:40.740Z,25.63
2022-08-26T12:42:43.233Z,29.88
2022-08-26T12:45:30.838Z,28.30
2022-08-26T12:48:25.504Z,30.15
2022-08-26T12:51:32.590Z,27.88
2022-08-26T12:54:19.793Z,26.05
2022-08-26T12:57:12.497Z,25.40
2022-08-26T13:00:34.530Z,25.80
2022-08-26T13:03:35.133Z,23.60
2022-08-26T13:06:20.494Z,24.65
2022-08-26T13:09:08.581Z,24.60
2022-08-26T13:11:53.332Z,24.45
2022-08-26T13:14:38.416Z,25.73
2022-08-26T13:17:23.358Z,24.55
2022-08-26T13:20:08.543Z,24.33
2022-08-26T13:22:58.785Z,31.77
2022-08-26T13:25:43.897Z,32.25
2022-08-26T13:28:29.161Z,24.73
2022-08-26T13:31:15.822Z,23.77
2022-08-26T13:34:03.358Z,23.75
2022-08-26T13:36:50.469Z,21.67
2022-08-26T13:39:35.621Z,21.73
2022-08-26T13:42:21.791Z,22.05
2022-08-26T13:45:07.524Z,20.88
2022-08-26T13:47:52.701Z,21.15
2022-08-26T13:50:37.504Z,21.15
2022-08-26T13:53:23.237Z,19.88
2022-08-26T13:56:11.088Z,19.60
2022-08-26T13:59:00.445Z,20.38
2022-08-26T14:01:46.057Z,20.63
2022-08-26T14:04:31.535Z,20.23
2022-08-26T14:07:16.785Z,18.48
2022-08-26T14:10:02.683Z,19.60
2022-08-26T14:12:47.968Z,18.85
2022-08-26T14:15:37.710Z,19.20
2022-08-26T14:18:28.380Z,17.73
2022-08-26T14:21:14.055Z,18.13
2022-08-26T14:24:01.034Z,19.25
2022-08-26T14:26:46.485Z,23.77
2022-08-26T14:29:31.956Z,19.30
2022-08-26T14:32:28.392Z,17.95
2022-08-26T14:35:17.228Z,17.38
2022-08-26T14:38:02.272Z,18.40
2022-08-26T14:40:47.663Z,18.58
2022-08-26T14:43:33.404Z,17.77
2022-08-26T14:46:18.845Z,18.25
2022-08-26T14:49:07.307Z,17.73
2022-08-26T14:51:55.173Z,17.23
2022-08-26T14:54:40.024Z,16.92
2022-08-26T14:57:25.026Z,17.35
2022-08-26T15:00:10.414Z,16.90
2022-08-26T15:02:55.579Z,17.65
2022-08-26T15:05:42.203Z,16.02
2022-08-26T15:08:28.925Z,15.77
2022-08-26T15:11:13.854Z,16.27
2022-08-26T15:13:59.275Z,15.88
2022-08-26T15:16:44.502Z,15.23
2022-08-26T15:19:29.314Z,14.45
2022-08-26T15:22:14.863Z,14.73
2022-08-26T15:25:00.725Z,14.73
2022-08-26T15:27:45.939Z,14.50
2022-08-26T15:30:31.526Z,14.15
2022-08-26T15:33:17.197Z,13.02
2022-08-26T15:36:04.039Z,13.57
2022-08-26T15:38:49.171Z,13.50
2022-08-26T15:41:35.133Z,13.13
2022-08-26T15:44:20.492Z,12.77
2022-08-26T15:47:05.543Z,14.35
2022-08-26T15:49:50.732Z,28.05
2022-08-26T15:52:38.610Z,13.48
2022-08-26T15:55:23.875Z,13.80
2022-08-26T15:58:08.877Z,13.10
2022-08-26T16:00:55.525Z,12.10
2022-08-26T16:03:40.820Z,11.13
2022-08-26T16:06:31.262Z,10.23
2022-08-26T16:09:16.213Z,10.07
2022-08-26T16:12:01.583Z,9.70
2022-08-26T16:14:46.761Z,9.38
2022-08-26T16:17:32.018Z,9.55
2022-08-26T16:20:17.039Z,8.93
2022-08-26T16:23:03.906Z,8.52
2022-08-26T16:25:50.358Z,9.00
2022-08-26T16:28:35.870Z,9.00
2022-08-26T16:31:23.424Z,8.40
2022-08-26T16:34:09.664Z,8.27
2022-08-26T16:36:54.689Z,7.60
2022-08-26T16:39:44.869Z,8.60
2022-08-26T16:42:30.565Z,9.88
2022-08-26T16:45:16.357Z,8.60
2022-08-26T16:48:02.490Z,11.32
2022-08-26T16:50:47.307Z,8.75
2022-08-26T16:53:32.293Z,8.10
2022-08-26T16:56:23.463Z,7.53
2022-08-26T16:59:18.841Z,7.70
2022-08-26T17:02:04.360Z,15.95
2022-08-26T17:04:50.464Z,7.32
2022-08-26T17:07:35.658Z,8.20
2022-08-26T17:10:22.239Z,7.85
2022-08-26T17:13:07.727Z,8.18
2022-08-26T17:15:52.997Z,7.78
2022-08-26T17:18:38.493Z,6.88
2022-08-26T17:21:24.921Z,7.50
2022-08-26T17:24:09.934Z,7.35
2022-08-26T17:26:55.854Z,7.45
2022-08-26T17:29:41.229Z,7.70
2022-08-26T17:32:26.672Z,6.95
2022-08-26T17:35:13.351Z,7.65
2022-08-26T17:37:58.365Z,7.20
2022-08-26T17:40:43.298Z,7.15
2022-08-26T17:43:28.652Z,7.07
2022-08-26T17:46:13.519Z,7.82
2022-08-26T17:48:59.598Z,6.70
2022-08-26T17:51:44.598Z,7.18
2022-08-26T17:54:30.181Z,7.28
2022-08-26T17:57:16.640Z,6.97
2022-08-26T18:00:11.274Z,7.40
2022-08-26T18:02:56.796Z,7.50
2022-08-26T18:05:42.410Z,7.10
2022-08-26T18:08:27.394Z,6.95
2022-08-26T18:11:18.997Z,7.25
2022-08-26T18:14:04.476Z,7.03
2022-08-26T18:16:49.387Z,6.60
2022-08-26T18:19:34.979Z,6.72
2022-08-26T18:22:20.722Z,6.78
2022-08-26T18:25:08.133Z,6.78
2022-08-26T18:27:53.639Z,6.32
2022-08-26T18:30:42.181Z,7.25
2022-08-26T18:33:27.234Z,7.00
2022-08-26T18:36:25.192Z,6.70
2022-08-26T18:39:11.832Z,6.63
2022-08-26T18:41:57.278Z,7.05
2022-08-26T18:44:42.764Z,7.68
2022-08-26T18:47:28.301Z,6.55
2022-08-26T18:50:14.120Z,6.85
2022-08-26T18:52:59.253Z,6.22
2022-08-26T18:55:44.648Z,6.15
2022-08-26T18:58:29.499Z,6.10
2022-08-26T19:01:16.879Z,6.80
2022-08-26T19:04:03.925Z,5.88
2022-08-26T19:06:50.826Z,6.40
2022-08-26T19:09:36.128Z,6.50
2022-08-26T19:12:21.838Z,6.20
2022-08-26T19:15:07.338Z,6.22
2022-08-26T19:17:52.530Z,6.55
2022-08-26T19:20:43.471Z,6.35
2022-08-26T19:23:32.435Z,5.60
2022-08-26T19:26:17.953Z,5.53
2022-08-26T19:29:03.389Z,5.90
2022-08-26T19:31:48.724Z,5.25
2022-08-26T19:34:34.028Z,5.25
2022-08-26T19:37:20.427Z,5.05
2022-08-26T19:40:05.974Z,4.97
2022-08-26T19:42:51.644Z,4.97
2022-08-26T19:45:37.334Z,4.82
2022-08-26T19:48:22.795Z,5.00
2022-08-26T19:51:08.101Z,5.15
2022-08-26T19:53:55.547Z,4.63
2022-08-26T19:56:40.686Z,5.32
2022-08-26T19:59:26.272Z,4.70
2022-08-26T20:02:11.792Z,5.30
2022-08-26T20:04:57.061Z,4.85
2022-08-26T20:07:43.133Z,4.75
2022-08-26T20:10:28.312Z,4.57
2022-08-26T20:13:13.573Z,5.20
2022-08-26T20:15:58.530Z,4.90
2022-08-26T20:18:45.017Z,4.90
2022-08-26T20:21:32.631Z,4.90
2022-08-26T20:24:19.236Z,5.10
2022-08-26T20:27:07.685Z,5.25
2022-08-26T20:29:57.220Z,4.97
2022-08-26T20:32:43.011Z,5.05
2022-08-26T20:35:28.188Z,5.30
2022-08-26T20:38:13.599Z,5.40
2022-08-26T20:40:59.026Z,4.72
2022-08-26T20:43:45.211Z,5.43
2022-08-26T20:46:30.313Z,4.93
2022-08-26T20:49:16.088Z,5.35
2022-08-26T20:52:03.073Z,5.15
2022-08-26T20:54:47.941Z,5.07
2022-08-26T20:57:32.818Z,5.38
2022-08-26T21:00:18.614Z,4.95
2022-08-26T21:03:06.913Z,5.25
2022-08-26T21:05:52.263Z,5.10
2022-08-26T21:08:40.870Z,5.00
2022-08-26T21:11:28.697Z,4.57
2022-08-26T21:14:16.167Z,4.82
2022-08-26T21:17:02.255Z,5.18
2022-08-26T21:19:47.416Z,4.75
2022-08-26T21:22:32.971Z,4.60
2022-08-26T21:25:18.619Z,5.10
2022-08-26T21:28:04.258Z,4.50
2022-08-26T21:30:49.336Z,4.40
2022-08-26T21:33:35.236Z,5.10
2022-08-26T21:36:20.252Z,4.40
2022-08-26T21:39:10.733Z,4.55
2022-08-26T21:41:56.424Z,4.72
2022-08-26T21:44:41.905Z,4.57
2022-08-26T21:47:27.522Z,4.35
2022-08-26T21:50:13.039Z,5.05
2022-08-26T21:52:58.112Z,4.70
2022-08-26T21:55:43.518Z,4.50
2022-08-26T21:58:28.417Z,4.80
2022-08-26T22:01:17.722Z,4.50
2022-08-26T22:04:05.266Z,4.40
2022-08-26T22:06:53.324Z,4.30
2022-08-26T22:09:38.748Z,4.13
2022-08-26T22:12:24.336Z,4.28
2022-08-26T22:15:10.101Z,4.63
2022-08-26T22:17:55.157Z,4.35
2022-08-26T22:20:40.531Z,4.18
2022-08-26T22:23:26.150Z,4.38
2022-08-26T22:26:13.517Z,4.40
2022-08-26T22:29:00.113Z,4.78
2022-08-26T22:31:46.050Z,4.53
2022-08-26T22:34:31.164Z,4.63
2022-08-26T22:37:16.124Z,4.63
2022-08-26T22:40:01.034Z,4.88
2022-08-26T22:42:55.722Z,4.45
2022-08-26T22:45:47.903Z,4.72
2022-08-26T22:48:33.061Z,4.53
2022-08-26T22:51:18.679Z,4.95
2022-08-26T22:54:04.875Z,4.80
2022-08-26T22:56:50.238Z,4.65
2022-08-26T22:59:35.512Z,4.78
2022-08-26T23:02:20.915Z,4.60
2022-08-26T23:05:07.392Z,4.30
2022-08-26T23:07:52.722Z,4.78
2022-08-26T23:10:40.753Z,4.57
2022-08-26T23:13:25.820Z,5.50
2022-08-26T23:16:12.635Z,5.35
2022-08-26T23:18:57.803Z,5.38
2022-08-26T23:21:43.517Z,5.55
2022-08-26T23:24:28.332Z,5.72
2022-08-26T23:27:13.649Z,9.85
2022-08-26T23:29:59.030Z,9.25
2022-08-26T23:32:43.976Z,5.60
2022-08-26T23:35:29.587Z,5.10
2022-08-26T23:38:14.863Z,5.70
2022-08-26T23:40:59.981Z,5.80
2022-08-26T23:43:45.497Z,5.55
2022-08-26T23:46:35.066Z,5.47
2022-08-26T23:49:20.399Z,5.97
2022-08-26T23:52:06.476Z,5.32
2022-08-26T23:54:52.354Z,5.65
2022-08-26T23:57:38.063Z,6.15
